Time;durP1;ratioP1;P1;durP2;ratioP2;P2;SDS_P1;SDS_P2;PMS_P1;PMS_P2;Temp;Humidity;BMP_temperature;BMP_pressure;BME280_temperature;BME280_humidity;BME280_pressure;Samples;Min_cycle;Max_cycle;Signal;HPM_P1;HPM_P2
2021/04/01 00:01:07;;;;;;;52.80;30.55;;;;;;;14.21;60.10;99258.84;258302;1116;114672;-68
2021/04/01 00:06:16;;;;;;;54.90;31.35;;;;;;;14.26;60.21;99245.96;258386;1116;114931;-67
2021/04/01 00:11:19;;;;;;;63.03;34.43;;;;;;;14.26;59.91;99240.61;258427;1116;115030;-69
2021/04/01 00:16:22;;;;;;;71.40;34.83;;;;;;;14.24;59.60;99222.98;258307;1116;114656;-69
2021/04/01 00:21:27;;;;;;;65.73;33.37;;;;;;;14.03;59.15;99231.62;258390;1114;114915;-67
2021/04/01 00:26:30;;;;;;;67.73;33.68;;;;;;;13.85;59.55;99212.38;258304;1116;114560;-66
2021/04/01 00:31:35;;;;;;;74.95;34.65;;;;;;;13.72;59.35;99211.56;258403;1115;114776;-67
2021/04/01 00:36:41;;;;;;;67.35;33.38;;;;;;;13.57;59.37;99208.19;258318;1116;114770;-68
2021/04/01 00:41:53;;;;;;;68.75;34.53;;;;;;;13.46;59.64;99205.43;258305;1116;115054;-68
2021/04/01 00:46:56;;;;;;;63.03;33.78;;;;;;;13.34;60.37;99201.80;258445;1115;114881;-69
2021/04/01 00:52:05;;;;;;;60.90;33.18;;;;;;;13.25;60.49;99189.10;258314;1115;115392;-69
2021/04/01 00:57:10;;;;;;;65.87;34.23;;;;;;;13.12;60.34;99189.07;258416;1116;114921;-69
2021/04/01 01:02:16;;;;;;;64.53;34.78;;;;;;;13.00;60.60;99181.90;258230;1116;115111;-70
2021/04/01 01:07:21;;;;;;;66.63;35.88;;;;;;;12.94;60.58;99184.98;258410;1116;114807;-70
2021/04/01 01:12:28;;;;;;;60.63;34.15;;;;;;;12.90;61.17;99172.81;258401;1116;114686;-69
2021/04/01 01:17:33;;;;;;;56.65;33.05;;;;;;;12.90;60.64;99168.33;258320;1116;114953;-69
2021/04/01 01:22:38;;;;;;;58.43;33.45;;;;;;;13.02;61.64;99163.95;258335;1116;115687;-68
2021/04/01 01:27:49;;;;;;;64.33;32.90;;;;;;;13.23;61.12;99149.07;258298;1116;115068;-69
2021/04/01 01:33:03;;;;;;;60.70;33.45;;;;;;;13.42;61.30;99140.63;258360;1116;115311;-69
2021/04/01 01:38:11;;;;;;;67.47;34.13;;;;;;;13.58;61.25;99140.36;258302;1116;114934;-70
2021/04/01 01:43:17;;;;;;;61.90;32.65;;;;;;;13.67;61.02;99128.15;258300;1116;114782;-69
2021/04/01 01:48:26;;;;;;;56.08;33.10;;;;;;;13.74;61.29;99124.05;258376;1116;114975;-68
2021/04/01 01:53:33;;;;;;;62.88;33.65;;;;;;;13.80;60.81;99120.94;258378;1116;114917;-68
2021/04/01 01:58:42;;;;;;;58.80;33.93;;;;;;;13.81;60.56;99109.25;258323;1116;114944;-71
2021/04/01 02:03:48;;;;;;;60.95;35.90;;;;;;;13.80;60.79;99102.20;258322;1116;115074;-69
2021/04/01 02:08:57;;;;;;;65.03;37.93;;;;;;;13.79;60.34;99104.98;258237;1116;115046;-66
2021/04/01 02:14:02;;;;;;;59.73;36.45;;;;;;;13.76;60.28;99098.06;258372;1116;115282;-69
2021/04/01 02:19:08;;;;;;;64.75;35.60;;;;;;;13.63;59.80;99089.23;258448;1116;114831;-68
2021/04/01 02:24:11;;;;;;;62.60;33.77;;;;;;;13.61;60.62;99088.48;258323;1116;115238;-65
2021/04/01 02:29:14;;;;;;;59.85;31.73;;;;;;;13.59;60.56;99087.76;258221;1115;114867;-66
2021/04/01 02:34:17;;;;;;;51.23;28.85;;;;;;;13.64;60.40;99090.93;258362;1115;114777;-63
2021/04/01 02:39:19;;;;;;;51.48;27.95;;;;;;;13.66;60.37;99078.31;258391;1116;114662;-65
2021/04/01 02:44:22;;;;;;;48.25;26.63;;;;;;;13.65;60.07;99079.26;258299;1116;115779;-66
2021/04/01 02:49:25;;;;;;;50.08;27.85;;;;;;;13.63;60.38;99078.53;258448;1116;115213;-65
2021/04/01 02:54:27;;;;;;;44.30;25.50;;;;;;;13.57;59.82;99069.13;258456;1116;115037;-65
2021/04/01 02:59:30;;;;;;;46.70;26.33;;;;;;;13.47;59.77;99068.95;258259;1116;114687;-65
2021/04/01 03:04:36;;;;;;;40.30;23.20;;;;;;;13.44;59.90;99068.33;258437;1115;115505;-68
2021/04/01 03:09:52;;;;;;;45.15;25.80;;;;;;;13.42;60.21;99070.28;258307;1116;115510;-66
2021/04/01 03:14:57;;;;;;;;;;;;;;;13.41;60.71;99061.38;258428;1116;116872;-66
2021/04/01 03:20:02;;;;;;;47.15;24.95;;;;;;;13.39;60.71;99052.64;258449;1116;102017;-66
2021/04/01 03:25:12;;;;;;;47.08;25.00;;;;;;;13.37;59.99;99054.55;258350;1116;115544;-67
2021/04/01 03:30:27;;;;;;;45.25;25.40;;;;;;;13.31;60.50;99046.98;258381;1116;115262;-67
2021/04/01 03:35:34;;;;;;;45.33;24.00;;;;;;;13.29;60.25;99056.10;258374;1116;114827;-67
2021/04/01 03:40:37;;;;;;;40.88;25.05;;;;;;;13.35;61.19;99048.48;258312;1116;115686;-67
2021/04/01 03:45:40;;;;;;;47.93;24.68;;;;;;;13.42;60.69;99040.88;258366;1116;114843;-69
2021/04/01 03:50:53;;;;;;;37.30;22.38;;;;;;;13.49;61.18;99036.78;258108;1116;115190;-68
2021/04/01 03:56:00;;;;;;;36.10;22.25;;;;;;;13.54;60.36;99031.08;258220;1114;115188;-68
2021/04/01 04:06:36;;;;;;;37.68;19.90;;;;;;;13.59;60.52;99019.08;258224;1115;114906;-67
2021/04/01 04:11:49;;;;;;;35.70;20.63;;;;;;;13.51;60.44;99018.78;258193;1116;114858;-68
2021/04/01 04:16:59;;;;;;;44.95;21.65;;;;;;;13.43;60.50;99011.34;258054;1116;115060;-68
2021/04/01 04:22:05;;;;;;;40.18;22.38;;;;;;;13.35;60.25;99011.06;258243;1116;114439;-68
2021/04/01 04:32:47;;;;;;;39.95;20.63;;;;;;;13.15;60.90;99012.50;258243;1116;115123;-67
2021/04/01 04:37:50;;;;;;;37.78;21.75;;;;;;;13.12;60.64;99012.72;258276;1116;114730;-66
2021/04/01 04:42:53;;;;;;;38.70;20.88;;;;;;;13.19;61.02;99011.30;258084;1114;116115;-67
2021/04/01 04:47:58;;;;;;;40.55;21.00;;;;;;;13.26;60.52;99009.06;258270;1116;114876;-68
2021/04/01 04:53:01;;;;;;;37.20;21.80;;;;;;;13.29;60.61;99010.66;258262;1116;114697;-68
2021/04/01 05:08:32;;;;;;;41.10;20.93;;;;;;;13.28;60.58;98995.57;258172;1116;115120;-66
2021/04/01 05:13:45;;;;;;;;;;;;;;;;;;;;;
2021/04/01 05:19:00;;;;;;;36.18;20.13;;;;;;;13.27;61.01;98986.70;258170;1116;115242;-67
2021/04/01 05:24:06;;;;;;;47.37;26.00;;;;;;;13.31;60.98;98988.18;258081;1116;115759;-67
2021/04/01 05:29:16;;;;;;;41.23;19.68;;;;;;;13.36;60.90;98994.05;258196;1116;115155;-69
2021/04/01 05:34:38;;;;;;;;;;;;;;;;;;;;;
2021/04/01 05:40:10;;;;;;;33.00;18.75;;;;;;;13.31;60.83;98984.66;258261;1116;114461;-66
2021/04/01 05:45:29;;;;;;;28.85;17.85;;;;;;;13.36;61.46;98983.36;258202;1116;116601;-68
2021/04/01 06:08:50;;;;;;;33.88;18.40;;;;;;;14.00;60.47;98968.77;258182;1116;114912;-74
2021/04/01 06:19:33;;;;;;;36.43;19.75;;;;;;;14.14;60.64;98963.19;258525;1115;114606;-68
2021/04/01 06:25:16;;;;;;;38.83;21.30;;;;;;;14.22;60.23;98963.42;251885;1116;115029;-71
2021/04/01 06:30:35;;;;;;;38.78;20.18;;;;;;;14.28;60.58;98970.98;258242;1116;114708;-73
2021/04/01 06:36:15;;;;;;;38.80;19.80;;;;;;;14.35;60.59;98966.84;258407;1116;114672;-68
2021/04/01 06:41:33;;;;;;;40.70;20.28;;;;;;;14.43;60.47;98966.23;258224;1116;116249;-71
2021/04/01 06:47:44;;;;;;;;;;;;;;;;;;;;;
2021/04/01 06:53:05;;;;;;;31.25;18.25;;;;;;;14.69;59.80;98937.41;258031;1116;115908;-70
2021/04/01 06:59:00;;;;;;;38.90;18.58;;;;;;;14.84;59.87;98938.88;257701;1118;115421;-68
2021/04/01 07:04:36;;;;;;;38.75;19.13;;;;;;;15.00;59.89;98930.41;257455;1118;116084;-69
2021/04/01 07:15:57;;;;;;;26.60;16.05;;;;;;;15.37;59.80;98928.22;257987;1115;115539;-66
2021/04/01 07:34:51;;;;;;;;;;;;;;;;;;;;;
2021/04/01 07:46:51;;;;;;;;;;;;;;;;;;;;;
2021/04/01 07:52:51;;;;;;;;;;;;;;;16.66;58.28;98894.78;255541;1123;116540;-68
2021/04/01 08:04:39;;;;;;;;;;;;;;;;;;;;;
2021/04/01 08:10:18;;;;;;;;;;;;;;;;;;;;;
2021/04/01 08:15:46;;;;;;;18.73;10.20;;;;;;;17.48;57.25;98864.88;256929;1120;115477;-67
2021/04/01 08:21:11;;;;;;;;;;;;;;;17.66;56.54;98857.79;257983;1116;115470;-67
2021/04/01 08:38:58;;;;;;;16.03;8.30;;;;;;;18.17;55.43;98843.06;257710;1116;114586;-67
2021/04/01 08:44:24;;;;;;;15.40;9.40;;;;;;;18.32;55.33;98827.25;258170;1116;116314;-72
2021/04/01 08:50:27;;;;;;;42.13;29.88;;;;;;;18.50;55.13;98824.59;258174;1116;114693;-73
2021/04/01 08:55:41;;;;;;;29.60;10.87;;;;;;;18.71;54.91;98818.08;257907;1116;115328;-74
2021/04/01 09:00:44;;;;;;;22.50;13.85;;;;;;;18.90;54.43;98826.08;258180;1116;115260;-74
2021/04/01 09:05:54;;;;;;;19.60;9.10;;;;;;;19.06;54.03;98815.45;258227;1115;114892;-72
2021/04/01 09:10:59;;;;;;;21.05;9.33;;;;;;;19.23;53.50;98802.11;258141;1116;115017;-72
2021/04/01 09:16:16;;;;;;;20.00;8.75;;;;;;;19.37;53.41;98802.38;258382;1116;114848;-72
2021/04/01 09:21:31;;;;;;;20.60;8.90;;;;;;;19.54;52.75;98800.66;258361;1114;114895;-72
2021/04/01 09:26:33;;;;;;;17.95;9.20;;;;;;;19.67;52.32;98794.03;258380;1116;115212;-72
2021/04/01 09:31:48;;;;;;;15.93;9.03;;;;;;;19.78;52.13;98780.25;258391;1116;114813;-72
2021/04/01 09:36:53;;;;;;;17.20;9.75;;;;;;;19.90;51.72;98772.70;258367;1116;114984;-72
2021/04/01 09:42:07;;;;;;;16.07;8.93;;;;;;;20.03;51.35;98770.41;258400;1114;115312;-71
2021/04/01 09:47:18;;;;;;;21.77;10.85;;;;;;;20.17;51.04;98769.78;258340;1109;114935;-73
2021/04/01 09:52:27;;;;;;;19.63;10.43;;;;;;;20.26;50.21;98765.27;258281;1114;115320;-74
2021/04/01 09:57:48;;;;;;;21.87;11.13;;;;;;;20.37;50.10;98762.25;258425;1116;114998;-74
2021/04/01 10:03:17;;;;;;;20.75;10.65;;;;;;;20.57;49.99;98754.73;258402;1114;115102;-74
2021/04/01 10:08:28;;;;;;;24.75;11.05;;;;;;;20.79;49.41;98743.30;258256;1115;115167;-74
2021/04/01 10:13:33;;;;;;;24.58;10.90;;;;;;;21.00;48.97;98737.38;258139;1115;116860;-73
2021/04/01 10:18:40;;;;;;;19.75;12.28;;;;;;;21.20;48.52;98737.88;258174;1116;115797;-73
2021/04/01 10:24:10;;;;;;;17.58;10.63;;;;;;;21.40;48.24;98727.58;258121;1116;116236;-73
2021/04/01 10:29:25;;;;;;;24.33;12.23;;;;;;;21.51;47.67;98712.83;258182;1114;115645;-73
2021/04/01 10:34:53;;;;;;;25.28;11.35;;;;;;;21.60;47.52;98706.38;258341;1115;116596;-74
2021/04/01 10:39:59;;;;;;;17.50;9.60;;;;;;;21.65;46.97;98703.98;258149;1108;116124;-73
2021/04/01 10:45:06;;;;;;;21.60;10.38;;;;;;;21.65;46.47;98689.59;258219;1116;116236;-73
2021/04/01 10:50:10;;;;;;;15.43;8.83;;;;;;;21.63;46.21;98680.79;258146;1114;115689;-73
2021/04/01 10:55:14;;;;;;;13.45;7.95;;;;;;;21.60;46.43;98673.88;258102;1116;115816;-72
2021/04/01 11:00:17;;;;;;;20.00;8.53;;;;;;;21.69;46.21;98663.84;258197;1116;115507;-72
2021/04/01 11:05:23;;;;;;;18.30;8.08;;;;;;;21.83;45.80;98663.10;258051;1116;116211;-73
2021/04/01 11:10:28;;;;;;;17.35;9.43;;;;;;;21.86;45.35;98660.04;258413;1115;114719;-75
2021/04/01 11:15:40;;;;;;;15.60;7.53;;;;;;;21.94;44.31;98648.31;258425;1116;114554;-74
2021/04/01 11:20:45;;;;;;;16.48;8.75;;;;;;;22.09;43.53;98649.26;258356;1115;115404;-75
2021/04/01 11:25:53;;;;;;;14.60;7.95;;;;;;;22.13;43.07;98647.03;258354;1116;114837;-74
2021/04/01 11:30:58;;;;;;;17.98;9.10;;;;;;;22.33;43.03;98644.74;258252;1108;115419;-75
2021/04/01 11:41:19;;;;;;;17.27;8.83;;;;;;;22.64;41.83;98628.40;258129;1116;115093;-77
2021/04/01 11:46:31;;;;;;;21.53;8.20;;;;;;;22.72;41.69;98620.17;258137;1116;115645;-75
2021/04/01 11:51:40;;;;;;;16.80;9.00;;;;;;;22.94;41.37;98612.23;258152;1115;115140;-75
2021/04/01 11:56:59;;;;;;;20.23;8.30;;;;;;;23.14;40.96;98608.78;258153;1116;115005;-76
2021/04/01 12:02:07;;;;;;;15.33;8.08;;;;;;;23.29;40.28;98602.52;258206;1116;116301;-75
2021/04/01 12:07:12;;;;;;;18.28;9.35;;;;;;;23.19;40.17;98596.52;258072;1115;115010;-74
2021/04/01 12:12:33;;;;;;;19.45;9.23;;;;;;;23.05;40.03;98590.05;258087;1114;115782;-75
2021/04/01 12:17:39;;;;;;;19.23;10.20;;;;;;;22.92;39.60;98587.94;258153;1116;115529;-75
2021/04/01 12:22:52;;;;;;;16.68;10.30;;;;;;;22.78;39.33;98597.74;258150;1111;115567;-75
2021/04/01 12:27:57;;;;;;;21.10;10.85;;;;;;;22.65;39.25;98595.65;258267;1116;116331;-75
2021/04/01 12:33:16;;;;;;;18.73;11.35;;;;;;;22.55;38.99;98589.63;258378;1116;115387;-70
2021/04/01 12:38:35;;;;;;;;;;;;;;;22.44;38.63;98585.49;258407;1116;115284;-75
2021/04/01 12:43:41;;;;;;;22.45;12.75;;;;;;;22.33;38.37;98587.80;258431;1116;102015;-76
2021/04/01 12:48:56;;;;;;;22.28;11.08;;;;;;;22.25;38.07;98577.88;258340;1115;115834;-75
2021/04/01 12:54:05;;;;;;;18.25;11.35;;;;;;;22.15;37.66;98571.85;258297;1115;115165;-75
2021/04/01 13:04:14;;;;;;;20.03;9.45;;;;;;;21.95;37.24;98572.28;258188;1115;115135;-74
2021/04/01 13:14:33;;;;;;;23.18;9.63;;;;;;;21.84;36.44;98567.28;258064;1110;115107;-74
2021/04/01 13:19:37;;;;;;;18.93;9.10;;;;;;;21.80;36.23;98567.80;258243;1116;114860;-75
2021/04/01 13:30:01;;;;;;;18.83;10.08;;;;;;;21.73;36.15;98559.53;258210;1115;114721;-73
2021/04/01 13:35:15;;;;;;;22.83;10.83;;;;;;;21.67;35.74;98555.70;258145;1116;116030;-74
2021/04/01 13:40:20;;;;;;;24.15;10.50;;;;;;;21.64;35.46;98542.50;258165;1116;115196;-72
2021/04/01 13:45:27;;;;;;;17.57;9.67;;;;;;;21.59;35.42;98544.89;258117;1116;115325;-72
2021/04/01 13:50:32;;;;;;;18.68;10.33;;;;;;;21.56;35.54;98541.69;258251;1115;116061;-72
2021/04/01 13:56:02;;;;;;;19.75;9.95;;;;;;;21.56;35.36;98533.56;258121;1114;115436;-73
2021/04/01 14:12:16;;;;;;;19.08;8.78;;;;;;;21.60;35.40;98510.52;258215;1116;115071;-74
2021/04/01 14:17:24;;;;;;;15.80;8.87;;;;;;;21.60;35.13;98519.52;256168;1115;115626;-74
2021/04/01 14:22:33;;;;;;;18.13;10.18;;;;;;;21.64;35.09;98511.88;258101;1109;115778;-75
2021/04/01 14:27:42;;;;;;;23.50;12.00;;;;;;;21.61;35.37;98514.94;258189;1114;116304;-74
2021/04/01 14:32:47;;;;;;;24.60;11.53;;;;;;;21.58;35.01;98505.30;258109;1116;115901;-74
2021/04/01 14:37:52;;;;;;;22.98;14.25;;;;;;;21.56;35.07;98501.91;258015;1114;115413;-74
2021/04/01 14:42:56;;;;;;;;;;;;;;;21.54;34.95;98497.72;257996;1108;115173;-74
2021/04/01 14:48:02;;;;;;;21.00;11.65;;;;;;;21.53;34.96;98496.02;258235;1116;101967;-73
2021/04/01 14:53:12;;;;;;;23.30;11.63;;;;;;;21.52;35.01;98484.34;258173;1116;115127;-75
2021/04/01 14:58:18;;;;;;;22.48;11.38;;;;;;;21.53;34.92;98491.43;258167;1116;115764;-74
2021/04/01 15:03:25;;;;;;;25.30;11.90;;;;;;;21.52;34.72;98483.50;258087;1116;115047;-71
2021/04/01 15:08:30;;;;;;;28.33;10.80;;;;;;;21.47;34.99;98484.89;258151;1116;115660;-69
2021/04/01 15:13:33;;;;;;;19.68;9.20;;;;;;;21.46;34.81;98479.63;258107;1115;116296;-69
2021/04/01 15:18:38;;;;;;;16.63;7.20;;;;;;;21.43;34.79;98475.44;258207;1116;115243;-70
2021/04/01 15:23:41;;;;;;;16.33;8.15;;;;;;;21.37;34.67;98469.89;258116;1115;115379;-69
2021/04/01 15:28:44;;;;;;;15.85;8.65;;;;;;;21.29;34.93;98468.02;257977;1116;114957;-70
2021/04/01 15:33:47;;;;;;;15.23;7.48;;;;;;;21.22;34.80;98456.22;258200;1108;115077;-69
2021/04/01 15:38:50;;;;;;;19.15;8.63;;;;;;;21.17;34.85;98458.63;258090;1115;115213;-70
2021/04/01 15:43:54;;;;;;;20.95;9.35;;;;;;;21.12;34.85;98461.01;258159;1115;115861;-71
2021/04/01 15:48:57;;;;;;;15.08;8.18;;;;;;;21.07;35.25;98458.84;258183;1116;114911;-71
2021/04/01 15:54:00;;;;;;;16.75;8.85;;;;;;;21.03;34.92;98460.22;258165;1116;115230;-71
2021/04/01 15:59:04;;;;;;;16.98;7.83;;;;;;;20.96;34.97;98460.08;258212;1115;115119;-72
2021/04/01 16:04:07;;;;;;;14.95;9.78;;;;;;;20.91;34.82;98470.56;258179;1116;115475;-71
2021/04/01 16:09:10;;;;;;;18.28;8.43;;;;;;;20.88;34.91;98489.84;258165;1116;115011;-73
2021/04/01 16:14:13;;;;;;;20.00;9.60;;;;;;;20.79;34.80;98501.73;258101;1114;115988;-73
2021/04/01 16:19:16;;;;;;;23.73;10.65;;;;;;;20.71;34.90;98497.16;258104;1115;116523;-71
2021/04/01 16:24:19;;;;;;;27.15;11.48;;;;;;;20.68;35.49;98486.69;258200;1108;115631;-73
2021/04/01 16:29:22;;;;;;;30.83;12.85;;;;;;;20.64;35.68;98493.47;258209;1116;115491;-73
2021/04/01 16:34:29;;;;;;;22.33;12.75;;;;;;;20.57;36.02;98502.45;258201;1115;115368;-74
2021/04/01 16:39:34;;;;;;;22.48;11.48;;;;;;;20.45;35.72;98501.95;258142;1116;115589;-74
2021/04/01 16:44:37;;;;;;;20.43;9.93;;;;;;;20.32;35.60;98502.46;258225;1116;116482;-74
2021/04/01 16:49:41;;;;;;;19.73;10.25;;;;;;;20.21;35.91;98503.66;257796;1114;115015;-74
2021/04/01 16:54:54;;;;;;;16.50;9.68;;;;;;;20.08;35.90;98501.45;258174;1115;116129;-74
2021/04/01 16:59:58;;;;;;;;;;;;;;;19.98;36.09;98505.34;258245;1116;115059;-74
2021/04/01 17:05:03;;;;;;;13.25;7.68;;;;;;;19.84;36.49;98520.36;258219;1114;102050;-77
2021/04/01 17:10:09;;;;;;;18.30;8.28;;;;;;;19.59;36.97;98531.05;258182;1116;115001;-77
2021/04/01 17:15:13;;;;;;;18.45;9.80;;;;;;;19.33;37.52;98560.84;258220;1114;115323;-75
2021/04/01 17:20:26;;;;;;;24.95;14.83;;;;;;;19.12;37.69;98563.96;258254;1116;116492;-80
2021/04/01 17:25:53;;;;;;;27.35;15.55;;;;;;;18.91;38.54;98558.94;258184;1116;116226;-79
2021/04/01 17:30:58;;;;;;;34.07;18.30;;;;;;;18.80;38.87;98558.38;258078;1116;115890;-77
2021/04/01 17:36:07;;;;;;;33.58;18.18;;;;;;;18.71;39.57;98556.59;258116;1116;117061;-76
2021/04/01 17:41:23;;;;;;;;;;;;;;;;;;;;;
2021/04/01 17:46:27;;;;;;;32.73;18.08;;;;;;;18.63;39.50;98578.95;258286;1114;115191;-76
2021/04/01 17:51:30;;;;;;;35.43;18.78;;;;;;;18.58;39.56;98595.61;256278;1116;115410;-75
2021/04/01 17:56:37;;;;;;;;;;;;;;;18.53;40.11;98611.39;258306;1116;115480;-78
2021/04/01 18:01:43;;;;;;;31.43;15.75;;;;;;;18.40;39.97;98606.39;258427;1116;100771;-78
2021/04/01 18:24:06;;;;;;;27.45;14.75;;;;;;;17.76;41.51;98536.59;258190;1116;115421;-76
2021/04/01 18:28:53;;;;;;;23.60;14.18;;;;;;;17.73;41.80;98532.38;258401;1115;115448;-80
2021/04/01 18:44:35;;;;;;;26.30;15.50;;;;;;;17.68;42.38;98554.34;257386;1115;114925;-82
2021/04/01 18:49:46;;;;;;;29.40;15.20;;;;;;;17.66;42.81;98561.75;257665;1116;114934;-79
2021/04/01 19:00:54;;;;;;;27.88;16.08;;;;;;;17.60;43.33;98591.11;258305;1116;116013;-76
2021/04/01 19:06:06;;;;;;;27.18;15.13;;;;;;;17.55;43.47;98602.30;258407;1116;114925;-75
2021/04/01 19:27:21;;;;;;;44.08;23.43;;;;;;;17.32;43.59;98626.05;258289;1116;115471;-76
2021/04/01 19:32:25;;;;;;;41.50;21.48;;;;;;;17.29;43.18;98625.50;258277;1116;114976;-77
2021/04/01 19:37:28;;;;;;;32.25;18.78;;;;;;;17.24;43.33;98621.42;258327;1116;116367;-76
2021/04/01 19:42:45;;;;;;;31.98;18.00;;;;;;;17.20;42.96;98632.63;258237;1116;114939;-75
2021/04/01 19:47:53;;;;;;;32.18;17.33;;;;;;;17.16;43.00;98637.45;258338;1116;115067;-79
2021/04/01 19:52:59;;;;;;;34.48;16.83;;;;;;;17.07;42.70;98643.70;258388;1116;115128;-75
2021/04/01 19:58:03;;;;;;;28.50;16.03;;;;;;;16.99;42.53;98644.44;258369;1116;115099;-76
2021/04/01 20:03:07;;;;;;;27.88;14.73;;;;;;;16.91;42.41;98644.30;258364;1115;115688;-75
2021/04/01 20:08:10;;;;;;;;;;;;;;;16.82;42.39;98642.50;258378;1114;114854;-78
2021/04/01 20:13:16;;;;;;;25.70;14.08;;;;;;;16.72;42.41;98645.17;258364;1116;102617;-76
2021/04/01 20:18:19;;;;;;;25.48;15.25;;;;;;;16.66;42.39;98647.58;258247;1116;115165;-75
2021/04/01 20:23:22;;;;;;;25.65;14.15;;;;;;;16.62;42.64;98648.86;258252;1115;115283;-75
2021/04/01 20:28:27;;;;;;;29.63;14.23;;;;;;;16.57;42.50;98654.64;258352;1116;115967;-75
2021/04/01 20:33:32;;;;;;;27.70;14.53;;;;;;;16.54;42.61;98662.98;258190;1116;115764;-77
2021/04/01 20:38:37;;;;;;;25.33;13.35;;;;;;;16.53;42.42;98670.20;258343;1116;114889;-76
2021/04/01 20:43:40;;;;;;;34.63;19.83;;;;;;;16.50;42.30;98678.54;258302;1114;114866;-75
2021/04/01 20:48:44;;;;;;;28.93;14.35;;;;;;;16.42;42.12;98677.56;258377;1114;115187;-75
2021/04/01 20:53:50;;;;;;;24.98;14.25;;;;;;;16.37;42.16;98679.81;258295;1116;115021;-75
2021/04/01 20:59:00;;;;;;;28.90;14.98;;;;;;;16.36;42.42;98681.66;258377;1116;115246;-75
2021/04/01 21:04:05;;;;;;;27.40;14.43;;;;;;;16.25;42.42;98684.48;258244;1115;115940;-74
2021/04/01 21:09:08;;;;;;;29.33;14.05;;;;;;;16.18;42.65;98688.72;258468;1115;114927;-74
2021/04/01 21:14:10;;;;;;;28.48;14.48;;;;;;;16.14;42.57;98677.41;258354;1116;115546;-75
2021/04/01 21:19:13;;;;;;;27.23;16.43;;;;;;;16.10;42.56;98684.05;258245;1115;114861;-74
2021/04/01 21:24:16;;;;;;;26.55;15.20;;;;;;;16.08;42.74;98686.02;258319;1115;116017;-75
2021/04/01 21:29:23;;;;;;;28.90;14.40;;;;;;;16.07;42.74;98692.38;258381;1116;115215;-75
2021/04/01 21:34:27;;;;;;;24.90;13.88;;;;;;;16.05;42.89;98691.66;258251;1116;115895;-73
2021/04/01 21:39:30;;;;;;;29.53;12.85;;;;;;;15.99;42.97;98689.52;258252;1115;115032;-70
2021/04/01 21:44:33;;;;;;;26.08;12.68;;;;;;;15.90;43.05;98688.52;258291;1114;115159;-72
2021/04/01 21:49:35;;;;;;;31.98;17.58;;;;;;;15.81;43.28;98698.23;258235;1114;115359;-72
2021/04/01 21:54:38;;;;;;;38.90;20.18;;;;;;;15.76;43.70;98680.83;258386;1116;115071;-73
2021/04/01 21:59:41;;;;;;;29.80;19.30;;;;;;;15.69;43.94;98674.32;258330;1116;115941;-72
2021/04/01 22:04:44;;;;;;;27.05;14.45;;;;;;;15.67;44.54;98677.16;258124;1115;115379;-72
2021/04/01 22:09:46;;;;;;;25.30;11.95;;;;;;;15.65;44.50;98670.19;258373;1115;115557;-73
2021/04/01 22:14:49;;;;;;;21.48;11.53;;;;;;;15.57;44.58;98668.19;258332;1116;115085;-72
2021/04/01 22:19:51;;;;;;;22.58;11.28;;;;;;;15.51;44.94;98674.09;258286;1116;115478;-72
2021/04/01 22:24:57;;;;;;;23.70;11.08;;;;;;;15.45;44.90;98674.63;258394;1115;115377;-72
2021/04/01 22:30:05;;;;;;;22.18;10.75;;;;;;;15.38;45.13;98668.95;258333;1115;115676;-73
2021/04/01 22:35:09;;;;;;;19.78;10.68;;;;;;;15.34;45.71;98662.16;258448;1115;115372;-73
2021/04/01 22:40:13;;;;;;;21.60;10.40;;;;;;;15.32;45.79;98656.11;258322;1116;115605;-73
2021/04/01 22:45:15;;;;;;;21.77;10.40;;;;;;;15.28;45.83;98644.77;258337;1116;115169;-73
2021/04/01 22:50:21;;;;;;;21.83;10.78;;;;;;;15.24;45.77;98639.83;258409;1115;115746;-73
2021/04/01 22:55:26;;;;;;;16.95;9.65;;;;;;;15.19;46.19;98634.88;258269;1116;115490;-74
2021/04/01 23:00:36;;;;;;;20.20;11.15;;;;;;;15.11;46.46;98635.56;258424;1114;114900;-74
2021/04/01 23:05:40;;;;;;;22.65;11.20;;;;;;;15.06;46.43;98631.57;258315;1116;115685;-75
2021/04/01 23:10:46;;;;;;;23.30;11.45;;;;;;;15.04;46.74;98633.52;258318;1115;115528;-72
2021/04/01 23:15:51;;;;;;;18.83;10.30;;;;;;;15.01;46.35;98634.63;258428;1116;115626;-80
2021/04/01 23:20:54;;;;;;;25.23;11.03;;;;;;;14.98;46.47;98634.05;258364;1116;115267;-78
2021/04/01 23:25:57;;;;;;;24.13;12.33;;;;;;;14.94;47.16;98636.14;258323;1116;115216;-81
2021/04/01 23:31:03;;;;;;;22.88;10.73;;;;;;;14.91;47.21;98631.05;258380;1115;114964;-82
2021/04/01 23:36:09;;;;;;;20.68;10.55;;;;;;;14.89;47.09;98630.35;258337;1115;115859;-73
2021/04/01 23:41:14;;;;;;;26.13;11.73;;;;;;;14.86;47.09;98620.74;258400;1115;114974;-78
2021/04/01 23:46:21;;;;;;;24.88;11.78;;;;;;;14.83;47.37;98615.64;258368;1114;115212;-75
2021/04/01 23:51:24;;;;;;;25.63;11.85;;;;;;;14.81;47.14;98608.71;258385;1116;115782;-75
2021/04/01 23:56:31;;;;;;;21.08;11.28;;;;;;;14.78;47.55;98601.81;258360;1114;115224;-75
